sensor_id;sensor_type;location;lat;lon;timestamp;temperature;humidity
24217;DHT22;12356;49.386;8.688;2022-10-31T00:02:30;14.50;62.60
24217;DHT22;12356;49.386;8.688;2022-10-31T00:05:01;14.40;62.10
24217;DHT22;12356;49.386;8.688;2022-10-31T00:07:31;14.40;62.30
24217;DHT22;12356;49.386;8.688;2022-10-31T00:10:02;14.30;62.40
24217;DHT22;12356;49.386;8.688;2022-10-31T00:12:33;14.30;62.50
24217;DHT22;12356;49.386;8.688;2022-10-31T00:15:04;14.40;62.80
24217;DHT22;12356;49.386;8.688;2022-10-31T00:17:35;14.40;62.60
24217;DHT22;12356;49.386;8.688;2022-10-31T00:20:07;14.40;62.20
24217;DHT22;12356;49.386;8.688;2022-10-31T00:22:38;14.40;62.30
24217;DHT22;12356;49.386;8.688;2022-10-31T00:25:08;14.30;62.20
24217;DHT22;12356;49.386;8.688;2022-10-31T00:27:39;14.30;62.20
24217;DHT22;12356;49.386;8.688;2022-10-31T00:30:11;14.30;62.40
24217;DHT22;12356;49.386;8.688;2022-10-31T00:32:42;14.40;62.50
24217;DHT22;12356;49.386;8.688;2022-10-31T00:35:13;14.30;62.20
24217;DHT22;12356;49.386;8.688;2022-10-31T00:37:44;14.30;62.40
24217;DHT22;12356;49.386;8.688;2022-10-31T00:40:15;14.30;62.40
24217;DHT22;12356;49.386;8.688;2022-10-31T00:42:45;14.30;62.80
24217;DHT22;12356;49.386;8.688;2022-10-31T00:45:16;14.40;62.60
24217;DHT22;12356;49.386;8.688;2022-10-31T00:47:47;14.40;62.40
24217;DHT22;12356;49.386;8.688;2022-10-31T00:50:17;14.30;62.40
24217;DHT22;12356;49.386;8.688;2022-10-31T00:52:48;14.30;62.60
24217;DHT22;12356;49.386;8.688;2022-10-31T00:55:19;14.30;63.10
24217;DHT22;12356;49.386;8.688;2022-10-31T00:57:49;14.30;62.60
24217;DHT22;12356;49.386;8.688;2022-10-31T01:00:20;14.30;62.80
24217;DHT22;12356;49.386;8.688;2022-10-31T01:02:51;14.20;62.50
24217;DHT22;12356;49.386;8.688;2022-10-31T01:05:22;14.20;62.40
24217;DHT22;12356;49.386;8.688;2022-10-31T01:07:52;14.20;62.70
24217;DHT22;12356;49.386;8.688;2022-10-31T01:10:23;14.20;62.30
24217;DHT22;12356;49.386;8.688;2022-10-31T01:12:54;14.20;62.20
24217;DHT22;12356;49.386;8.688;2022-10-31T01:15:24;14.20;62.40
24217;DHT22;12356;49.386;8.688;2022-10-31T01:17:55;14.20;62.80
24217;DHT22;12356;49.386;8.688;2022-10-31T01:20:26;14.20;62.80
24217;DHT22;12356;49.386;8.688;2022-10-31T01:22:57;14.20;63.00
24217;DHT22;12356;49.386;8.688;2022-10-31T01:25:27;14.20;62.90
24217;DHT22;12356;49.386;8.688;2022-10-31T01:27:59;14.10;62.80
24217;DHT22;12356;49.386;8.688;2022-10-31T01:30:30;14.10;62.80
24217;DHT22;12356;49.386;8.688;2022-10-31T01:33:01;14.10;62.50
24217;DHT22;12356;49.386;8.688;2022-10-31T01:35:31;14.10;62.20
24217;DHT22;12356;49.386;8.688;2022-10-31T01:38:02;14.10;62.30
24217;DHT22;12356;49.386;8.688;2022-10-31T01:40:33;14.10;62.80
24217;DHT22;12356;49.386;8.688;2022-10-31T01:43:04;14.10;62.30
24217;DHT22;12356;49.386;8.688;2022-10-31T01:45:34;14.10;62.10
24217;DHT22;12356;49.386;8.688;2022-10-31T01:48:06;14.00;62.10
24217;DHT22;12356;49.386;8.688;2022-10-31T01:50:43;14.00;62.70
24217;DHT22;12356;49.386;8.688;2022-10-31T01:53:15;14.00;63.30
24217;DHT22;12356;49.386;8.688;2022-10-31T01:55:47;14.00;62.90
24217;DHT22;12356;49.386;8.688;2022-10-31T01:58:24;13.90;62.60
24217;DHT22;12356;49.386;8.688;2022-10-31T02:00:58;13.90;62.80
24217;DHT22;12356;49.386;8.688;2022-10-31T02:03:29;13.90;62.50
24217;DHT22;12356;49.386;8.688;2022-10-31T02:06:02;13.90;62.50
24217;DHT22;12356;49.386;8.688;2022-10-31T02:08:34;13.90;62.40
24217;DHT22;12356;49.386;8.688;2022-10-31T02:11:05;13.90;62.80
24217;DHT22;12356;49.386;8.688;2022-10-31T02:13:37;13.90;62.80
24217;DHT22;12356;49.386;8.688;2022-10-31T02:16:09;13.90;62.80
24217;DHT22;12356;49.386;8.688;2022-10-31T02:18:39;13.90;62.50
24217;DHT22;12356;49.386;8.688;2022-10-31T02:21:18;14.00;62.30
24217;DHT22;12356;49.386;8.688;2022-10-31T02:26:57;13.90;62.00
24217;DHT22;12356;49.386;8.688;2022-10-31T02:35:14;13.90;62.10
24217;DHT22;12356;49.386;8.688;2022-10-31T02:37:57;13.90;62.10
24217;DHT22;12356;49.386;8.688;2022-10-31T02:41:00;13.90;61.80
24217;DHT22;12356;49.386;8.688;2022-10-31T02:46:46;13.90;62.50
24217;DHT22;12356;49.386;8.688;2022-10-31T02:49:16;13.90;62.00
24217;DHT22;12356;49.386;8.688;2022-10-31T02:51:48;13.90;61.80
24217;DHT22;12356;49.386;8.688;2022-10-31T02:54:24;13.90;61.60
24217;DHT22;12356;49.386;8.688;2022-10-31T02:56:59;13.90;62.00
24217;DHT22;12356;49.386;8.688;2022-10-31T02:59:33;13.90;61.90
24217;DHT22;12356;49.386;8.688;2022-10-31T03:05:50;13.80;61.90
24217;DHT22;12356;49.386;8.688;2022-10-31T03:08:43;13.80;61.70
24217;DHT22;12356;49.386;8.688;2022-10-31T03:11:17;13.70;61.80
24217;DHT22;12356;49.386;8.688;2022-10-31T03:16:49;13.70;61.70
24217;DHT22;12356;49.386;8.688;2022-10-31T03:19:26;13.70;61.40
24217;DHT22;12356;49.386;8.688;2022-10-31T03:22:02;13.70;61.30
24217;DHT22;12356;49.386;8.688;2022-10-31T03:24:37;13.60;61.60
24217;DHT22;12356;49.386;8.688;2022-10-31T03:27:10;13.70;62.30
24217;DHT22;12356;49.386;8.688;2022-10-31T03:29:43;13.60;62.40
24217;DHT22;12356;49.386;8.688;2022-10-31T03:32:45;13.60;62.40
24217;DHT22;12356;49.386;8.688;2022-10-31T03:35:21;13.70;62.60
24217;DHT22;12356;49.386;8.688;2022-10-31T03:37:54;13.70;62.60
24217;DHT22;12356;49.386;8.688;2022-10-31T03:40:26;13.70;62.10
24217;DHT22;12356;49.386;8.688;2022-10-31T03:43:01;13.70;62.10
24217;DHT22;12356;49.386;8.688;2022-10-31T03:45:38;13.70;62.00
24217;DHT22;12356;49.386;8.688;2022-10-31T03:48:13;13.70;61.90
24217;DHT22;12356;49.386;8.688;2022-10-31T03:53:54;13.80;61.70
24217;DHT22;12356;49.386;8.688;2022-10-31T03:56:36;13.70;62.20
24217;DHT22;12356;49.386;8.688;2022-10-31T03:59:31;13.70;62.30
24217;DHT22;12356;49.386;8.688;2022-10-31T04:02:07;13.70;62.00
24217;DHT22;12356;49.386;8.688;2022-10-31T04:04:42;13.70;61.90
24217;DHT22;12356;49.386;8.688;2022-10-31T04:07:15;13.70;61.60
24217;DHT22;12356;49.386;8.688;2022-10-31T04:09:46;13.60;61.90
24217;DHT22;12356;49.386;8.688;2022-10-31T04:12:19;13.70;61.70
24217;DHT22;12356;49.386;8.688;2022-10-31T04:14:51;13.60;61.40
24217;DHT22;12356;49.386;8.688;2022-10-31T04:17:26;13.60;61.40
24217;DHT22;12356;49.386;8.688;2022-10-31T04:19:59;13.50;61.40
24217;DHT22;12356;49.386;8.688;2022-10-31T04:22:30;13.50;61.30
24217;DHT22;12356;49.386;8.688;2022-10-31T04:25:01;13.50;61.30
24217;DHT22;12356;49.386;8.688;2022-10-31T04:27:32;13.40;61.20
24217;DHT22;12356;49.386;8.688;2022-10-31T04:30:03;13.40;60.90
24217;DHT22;12356;49.386;8.688;2022-10-31T04:32:34;13.40;61.20
24217;DHT22;12356;49.386;8.688;2022-10-31T04:35:05;13.40;61.20
24217;DHT22;12356;49.386;8.688;2022-10-31T04:37:36;13.30;61.50
24217;DHT22;12356;49.386;8.688;2022-10-31T04:40:07;13.40;61.70
24217;DHT22;12356;49.386;8.688;2022-10-31T04:42:38;13.40;61.30
24217;DHT22;12356;49.386;8.688;2022-10-31T04:45:09;13.40;61.10
24217;DHT22;12356;49.386;8.688;2022-10-31T04:47:39;13.40;60.70
24217;DHT22;12356;49.386;8.688;2022-10-31T04:50:10;13.30;61.30
24217;DHT22;12356;49.386;8.688;2022-10-31T04:52:43;13.30;62.00
24217;DHT22;12356;49.386;8.688;2022-10-31T04:55:14;13.30;62.10
24217;DHT22;12356;49.386;8.688;2022-10-31T04:57:46;13.30;62.20
24217;DHT22;12356;49.386;8.688;2022-10-31T05:00:19;13.30;61.60
24217;DHT22;12356;49.386;8.688;2022-10-31T05:02:52;13.30;61.20
24217;DHT22;12356;49.386;8.688;2022-10-31T05:05:27;13.30;61.40
24217;DHT22;12356;49.386;8.688;2022-10-31T05:07:59;13.30;61.00
24217;DHT22;12356;49.386;8.688;2022-10-31T05:10:30;13.20;60.70
24217;DHT22;12356;49.386;8.688;2022-10-31T05:13:02;13.20;60.70
24217;DHT22;12356;49.386;8.688;2022-10-31T05:15:33;13.30;61.10
24217;DHT22;12356;49.386;8.688;2022-10-31T05:18:04;13.30;61.40
24217;DHT22;12356;49.386;8.688;2022-10-31T05:20:34;13.30;61.80
24217;DHT22;12356;49.386;8.688;2022-10-31T05:23:05;13.30;61.90
24217;DHT22;12356;49.386;8.688;2022-10-31T05:25:36;13.20;61.50
24217;DHT22;12356;49.386;8.688;2022-10-31T05:28:07;13.20;61.90
24217;DHT22;12356;49.386;8.688;2022-10-31T05:30:37;13.20;61.70
24217;DHT22;12356;49.386;8.688;2022-10-31T05:33:08;13.20;61.50
24217;DHT22;12356;49.386;8.688;2022-10-31T05:35:39;13.20;61.70
24217;DHT22;12356;49.386;8.688;2022-10-31T05:38:09;13.10;61.80
24217;DHT22;12356;49.386;8.688;2022-10-31T05:40:40;13.20;61.60
24217;DHT22;12356;49.386;8.688;2022-10-31T05:43:11;13.20;61.70
24217;DHT22;12356;49.386;8.688;2022-10-31T05:45:41;13.10;61.30
24217;DHT22;12356;49.386;8.688;2022-10-31T05:48:12;13.20;61.10
24217;DHT22;12356;49.386;8.688;2022-10-31T05:50:43;13.20;61.10
24217;DHT22;12356;49.386;8.688;2022-10-31T05:53:14;13.10;60.60
24217;DHT22;12356;49.386;8.688;2022-10-31T05:55:44;13.00;60.70
24217;DHT22;12356;49.386;8.688;2022-10-31T05:58:15;13.00;60.70
24217;DHT22;12356;49.386;8.688;2022-10-31T06:00:46;13.00;60.60
24217;DHT22;12356;49.386;8.688;2022-10-31T06:03:16;12.90;60.80
24217;DHT22;12356;49.386;8.688;2022-10-31T06:05:47;12.80;61.50
24217;DHT22;12356;49.386;8.688;2022-10-31T06:08:18;12.90;61.80
24217;DHT22;12356;49.386;8.688;2022-10-31T06:10:48;12.90;61.80
24217;DHT22;12356;49.386;8.688;2022-10-31T06:13:19;12.90;61.40
24217;DHT22;12356;49.386;8.688;2022-10-31T06:15:50;12.90;61.20
24217;DHT22;12356;49.386;8.688;2022-10-31T06:18:20;12.90;61.00
24217;DHT22;12356;49.386;8.688;2022-10-31T06:20:51;13.00;61.10
24217;DHT22;12356;49.386;8.688;2022-10-31T06:23:22;13.00;61.30
24217;DHT22;12356;49.386;8.688;2022-10-31T06:25:52;12.90;61.10
24217;DHT22;12356;49.386;8.688;2022-10-31T06:28:23;13.00;61.20
24217;DHT22;12356;49.386;8.688;2022-10-31T06:30:54;12.90;61.10
24217;DHT22;12356;49.386;8.688;2022-10-31T06:33:24;13.00;61.30
24217;DHT22;12356;49.386;8.688;2022-10-31T06:35:55;13.00;61.40
24217;DHT22;12356;49.386;8.688;2022-10-31T06:38:26;13.00;60.90
24217;DHT22;12356;49.386;8.688;2022-10-31T06:40:57;13.00;60.60
24217;DHT22;12356;49.386;8.688;2022-10-31T06:43:28;13.00;61.00
24217;DHT22;12356;49.386;8.688;2022-10-31T06:46:03;13.00;61.10
24217;DHT22;12356;49.386;8.688;2022-10-31T06:48:34;12.90;61.50
24217;DHT22;12356;49.386;8.688;2022-10-31T06:51:05;13.00;61.90
24217;DHT22;12356;49.386;8.688;2022-10-31T06:53:36;13.00;62.10
24217;DHT22;12356;49.386;8.688;2022-10-31T06:56:07;13.00;62.60
24217;DHT22;12356;49.386;8.688;2022-10-31T06:58:38;13.00;63.30
24217;DHT22;12356;49.386;8.688;2022-10-31T07:01:08;13.00;63.30
24217;DHT22;12356;49.386;8.688;2022-10-31T07:03:39;13.10;63.40
24217;DHT22;12356;49.386;8.688;2022-10-31T07:06:10;13.20;63.30
24217;DHT22;12356;49.386;8.688;2022-10-31T07:08:40;13.20;63.10
24217;DHT22;12356;49.386;8.688;2022-10-31T07:11:11;13.30;63.10
24217;DHT22;12356;49.386;8.688;2022-10-31T07:13:42;13.30;63.00
24217;DHT22;12356;49.386;8.688;2022-10-31T07:16:12;13.30;63.40
24217;DHT22;12356;49.386;8.688;2022-10-31T07:18:44;13.30;63.60
24217;DHT22;12356;49.386;8.688;2022-10-31T07:21:14;13.30;64.10
24217;DHT22;12356;49.386;8.688;2022-10-31T07:23:48;13.30;64.60
24217;DHT22;12356;49.386;8.688;2022-10-31T07:26:19;13.30;64.90
24217;DHT22;12356;49.386;8.688;2022-10-31T07:28:49;13.30;65.70
24217;DHT22;12356;49.386;8.688;2022-10-31T07:31:20;13.40;66.30
24217;DHT22;12356;49.386;8.688;2022-10-31T07:33:51;13.40;65.90
24217;DHT22;12356;49.386;8.688;2022-10-31T07:36:21;13.40;66.00
24217;DHT22;12356;49.386;8.688;2022-10-31T07:38:52;13.50;66.30
24217;DHT22;12356;49.386;8.688;2022-10-31T07:41:23;13.50;66.90
24217;DHT22;12356;49.386;8.688;2022-10-31T07:43:54;13.50;67.50
24217;DHT22;12356;49.386;8.688;2022-10-31T07:46:27;13.50;67.90
24217;DHT22;12356;49.386;8.688;2022-10-31T07:48:58;13.50;68.50
24217;DHT22;12356;49.386;8.688;2022-10-31T07:51:29;13.60;69.20
24217;DHT22;12356;49.386;8.688;2022-10-31T07:54:03;13.70;69.30
24217;DHT22;12356;49.386;8.688;2022-10-31T07:56:36;13.70;69.00
24217;DHT22;12356;49.386;8.688;2022-10-31T07:59:07;13.80;68.60
24217;DHT22;12356;49.386;8.688;2022-10-31T08:01:37;13.80;68.60
24217;DHT22;12356;49.386;8.688;2022-10-31T08:04:08;13.90;68.30
24217;DHT22;12356;49.386;8.688;2022-10-31T08:06:39;13.90;68.30
24217;DHT22;12356;49.386;8.688;2022-10-31T08:09:10;14.00;67.90
24217;DHT22;12356;49.386;8.688;2022-10-31T08:11:44;14.00;68.00
24217;DHT22;12356;49.386;8.688;2022-10-31T08:14:15;14.00;68.30
24217;DHT22;12356;49.386;8.688;2022-10-31T08:16:46;14.10;68.20
24217;DHT22;12356;49.386;8.688;2022-10-31T08:19:17;14.10;67.90
24217;DHT22;12356;49.386;8.688;2022-10-31T08:21:52;14.10;67.50
24217;DHT22;12356;49.386;8.688;2022-10-31T08:24:25;14.20;67.90
24217;DHT22;12356;49.386;8.688;2022-10-31T08:26:56;14.30;68.00
24217;DHT22;12356;49.386;8.688;2022-10-31T08:29:26;14.30;68.40
24217;DHT22;12356;49.386;8.688;2022-10-31T08:31:58;14.30;68.60
24217;DHT22;12356;49.386;8.688;2022-10-31T08:34:29;14.40;68.70
24217;DHT22;12356;49.386;8.688;2022-10-31T08:36:59;14.40;68.90
24217;DHT22;12356;49.386;8.688;2022-10-31T08:39:30;14.50;68.80
24217;DHT22;12356;49.386;8.688;2022-10-31T08:42:01;14.50;68.80
24217;DHT22;12356;49.386;8.688;2022-10-31T08:44:31;14.50;68.50
24217;DHT22;12356;49.386;8.688;2022-10-31T08:47:02;14.60;68.40
24217;DHT22;12356;49.386;8.688;2022-10-31T08:49:33;14.60;68.00
24217;DHT22;12356;49.386;8.688;2022-10-31T08:52:03;14.70;68.00
24217;DHT22;12356;49.386;8.688;2022-10-31T08:54:34;14.70;68.10
24217;DHT22;12356;49.386;8.688;2022-10-31T08:57:05;14.70;67.70
24217;DHT22;12356;49.386;8.688;2022-10-31T08:59:35;14.80;68.00
24217;DHT22;12356;49.386;8.688;2022-10-31T09:02:07;14.70;67.90
24217;DHT22;12356;49.386;8.688;2022-10-31T09:04:38;14.70;67.80
24217;DHT22;12356;49.386;8.688;2022-10-31T09:07:08;14.80;67.70
24217;DHT22;12356;49.386;8.688;2022-10-31T09:09:39;14.80;67.40
24217;DHT22;12356;49.386;8.688;2022-10-31T09:12:10;14.90;67.80
24217;DHT22;12356;49.386;8.688;2022-10-31T09:14:40;15.00;67.30
24217;DHT22;12356;49.386;8.688;2022-10-31T09:17:11;15.00;66.20
24217;DHT22;12356;49.386;8.688;2022-10-31T09:19:42;15.10;66.50
24217;DHT22;12356;49.386;8.688;2022-10-31T09:22:12;15.10;67.10
24217;DHT22;12356;49.386;8.688;2022-10-31T09:24:43;15.10;67.40
24217;DHT22;12356;49.386;8.688;2022-10-31T09:27:13;15.20;67.10
24217;DHT22;12356;49.386;8.688;2022-10-31T09:29:44;15.20;67.40
24217;DHT22;12356;49.386;8.688;2022-10-31T09:32:15;15.30;66.30
24217;DHT22;12356;49.386;8.688;2022-10-31T09:34:45;15.30;66.40
24217;DHT22;12356;49.386;8.688;2022-10-31T09:37:16;15.30;66.60
24217;DHT22;12356;49.386;8.688;2022-10-31T09:39:47;15.40;66.40
24217;DHT22;12356;49.386;8.688;2022-10-31T09:42:42;15.40;66.00
24217;DHT22;12356;49.386;8.688;2022-10-31T09:45:23;15.50;64.40
24217;DHT22;12356;49.386;8.688;2022-10-31T09:48:16;15.50;63.00
24217;DHT22;12356;49.386;8.688;2022-10-31T09:51:13;15.60;63.00
24217;DHT22;12356;49.386;8.688;2022-10-31T09:56:48;15.60;62.60
24217;DHT22;12356;49.386;8.688;2022-10-31T09:59:38;15.70;63.00
24217;DHT22;12356;49.386;8.688;2022-10-31T10:02:44;15.70;62.30
24217;DHT22;12356;49.386;8.688;2022-10-31T10:05:26;15.80;61.10
24217;DHT22;12356;49.386;8.688;2022-10-31T10:22:24;16.00;60.90
24217;DHT22;12356;49.386;8.688;2022-10-31T10:25:02;16.00;61.30
24217;DHT22;12356;49.386;8.688;2022-10-31T10:30:39;16.10;61.00
24217;DHT22;12356;49.386;8.688;2022-10-31T10:33:24;16.10;60.60
24217;DHT22;12356;49.386;8.688;2022-10-31T10:36:04;16.10;58.80
24217;DHT22;12356;49.386;8.688;2022-10-31T10:38:53;16.20;58.90
24217;DHT22;12356;49.386;8.688;2022-10-31T10:41:30;16.20;57.40
24217;DHT22;12356;49.386;8.688;2022-10-31T10:44:01;16.20;57.40
24217;DHT22;12356;49.386;8.688;2022-10-31T10:46:43;16.20;57.00
24217;DHT22;12356;49.386;8.688;2022-10-31T10:49:45;16.20;57.40
24217;DHT22;12356;49.386;8.688;2022-10-31T10:52:31;16.30;57.20
24217;DHT22;12356;49.386;8.688;2022-10-31T10:55:39;16.30;57.60
24217;DHT22;12356;49.386;8.688;2022-10-31T10:58:11;16.30;58.30
24217;DHT22;12356;49.386;8.688;2022-10-31T11:00:46;16.40;57.40
24217;DHT22;12356;49.386;8.688;2022-10-31T11:03:18;16.40;57.60
24217;DHT22;12356;49.386;8.688;2022-10-31T11:05:52;16.40;57.30
24217;DHT22;12356;49.386;8.688;2022-10-31T11:08:34;16.50;56.20
24217;DHT22;12356;49.386;8.688;2022-10-31T11:11:12;16.50;54.90
24217;DHT22;12356;49.386;8.688;2022-10-31T11:13:48;16.50;55.20
24217;DHT22;12356;49.386;8.688;2022-10-31T11:16:40;16.60;55.90
24217;DHT22;12356;49.386;8.688;2022-10-31T11:19:19;16.60;55.20
24217;DHT22;12356;49.386;8.688;2022-10-31T11:21:50;16.70;54.50
24217;DHT22;12356;49.386;8.688;2022-10-31T11:24:26;16.70;54.40
24217;DHT22;12356;49.386;8.688;2022-10-31T11:27:36;16.70;54.90
24217;DHT22;12356;49.386;8.688;2022-10-31T11:30:09;16.80;56.10
24217;DHT22;12356;49.386;8.688;2022-10-31T11:32:48;16.80;56.80
24217;DHT22;12356;49.386;8.688;2022-10-31T11:35:21;16.80;56.00
24217;DHT22;12356;49.386;8.688;2022-10-31T11:37:54;16.90;55.60
24217;DHT22;12356;49.386;8.688;2022-10-31T11:40:29;16.90;56.50
24217;DHT22;12356;49.386;8.688;2022-10-31T11:42:59;16.90;57.00
24217;DHT22;12356;49.386;8.688;2022-10-31T11:45:33;16.90;57.00
24217;DHT22;12356;49.386;8.688;2022-10-31T11:48:16;16.90;56.70
24217;DHT22;12356;49.386;8.688;2022-10-31T11:50:55;17.00;56.20
24217;DHT22;12356;49.386;8.688;2022-10-31T11:53:30;17.00;55.50
24217;DHT22;12356;49.386;8.688;2022-10-31T11:56:13;17.10;54.60
24217;DHT22;12356;49.386;8.688;2022-10-31T11:59:01;17.10;54.40
24217;DHT22;12356;49.386;8.688;2022-10-31T12:01:32;17.20;52.00
24217;DHT22;12356;49.386;8.688;2022-10-31T12:04:10;17.20;49.90
24217;DHT22;12356;49.386;8.688;2022-10-31T12:06:43;17.30;50.30
24217;DHT22;12356;49.386;8.688;2022-10-31T12:09:24;17.30;51.00
24217;DHT22;12356;49.386;8.688;2022-10-31T12:17:16;17.40;54.10
24217;DHT22;12356;49.386;8.688;2022-10-31T12:20:10;17.40;54.10
24217;DHT22;12356;49.386;8.688;2022-10-31T12:22:59;17.40;54.00
24217;DHT22;12356;49.386;8.688;2022-10-31T12:31:40;17.50;52.80
24217;DHT22;12356;49.386;8.688;2022-10-31T12:37:47;17.50;54.20
24217;DHT22;12356;49.386;8.688;2022-10-31T12:45:56;17.40;54.40
24217;DHT22;12356;49.386;8.688;2022-10-31T12:48:49;17.40;53.80
24217;DHT22;12356;49.386;8.688;2022-10-31T12:51:27;17.40;53.30
24217;DHT22;12356;49.386;8.688;2022-10-31T12:54:29;17.40;53.90
24217;DHT22;12356;49.386;8.688;2022-10-31T12:57:09;17.40;54.50
24217;DHT22;12356;49.386;8.688;2022-10-31T12:59:47;17.40;52.90
24217;DHT22;12356;49.386;8.688;2022-10-31T13:02:42;17.40;54.90
24217;DHT22;12356;49.386;8.688;2022-10-31T13:05:36;17.40;57.80
24217;DHT22;12356;49.386;8.688;2022-10-31T13:08:23;17.40;57.60
24217;DHT22;12356;49.386;8.688;2022-10-31T13:11:12;17.40;54.80
24217;DHT22;12356;49.386;8.688;2022-10-31T13:14:05;17.40;53.50
24217;DHT22;12356;49.386;8.688;2022-10-31T13:16:40;17.50;53.90
24217;DHT22;12356;49.386;8.688;2022-10-31T13:19:31;17.50;53.60
24217;DHT22;12356;49.386;8.688;2022-10-31T13:22:25;17.50;53.00
24217;DHT22;12356;49.386;8.688;2022-10-31T13:27:37;17.50;53.80
24217;DHT22;12356;49.386;8.688;2022-10-31T13:30:17;17.50;54.20
24217;DHT22;12356;49.386;8.688;2022-10-31T13:32:53;17.50;54.10
24217;DHT22;12356;49.386;8.688;2022-10-31T13:35:43;17.50;54.60
24217;DHT22;12356;49.386;8.688;2022-10-31T13:41:15;17.50;56.40
24217;DHT22;12356;49.386;8.688;2022-10-31T13:43:59;17.50;58.60
24217;DHT22;12356;49.386;8.688;2022-10-31T13:49:04;17.50;57.70
24217;DHT22;12356;49.386;8.688;2022-10-31T13:51:34;17.50;57.60
24217;DHT22;12356;49.386;8.688;2022-10-31T13:54:29;17.50;56.20
24217;DHT22;12356;49.386;8.688;2022-10-31T13:57:02;17.60;54.80
24217;DHT22;12356;49.386;8.688;2022-10-31T13:59:37;17.70;53.50
24217;DHT22;12356;49.386;8.688;2022-10-31T14:02:29;17.80;52.70
24217;DHT22;12356;49.386;8.688;2022-10-31T14:05:04;17.90;50.70
24217;DHT22;12356;49.386;8.688;2022-10-31T14:07:43;17.90;50.70
24217;DHT22;12356;49.386;8.688;2022-10-31T14:10:26;17.90;51.40
24217;DHT22;12356;49.386;8.688;2022-10-31T14:13:22;18.00;51.30
24217;DHT22;12356;49.386;8.688;2022-10-31T14:15:57;18.00;49.40
24217;DHT22;12356;49.386;8.688;2022-10-31T14:18:40;18.00;48.00
24217;DHT22;12356;49.386;8.688;2022-10-31T14:23:55;18.10;48.50
24217;DHT22;12356;49.386;8.688;2022-10-31T14:26:30;18.10;48.50
24217;DHT22;12356;49.386;8.688;2022-10-31T14:29:23;18.10;49.20
24217;DHT22;12356;49.386;8.688;2022-10-31T14:34:33;18.00;49.50
24217;DHT22;12356;49.386;8.688;2022-10-31T14:50:59;17.80;54.40
24217;DHT22;12356;49.386;8.688;2022-10-31T14:53:34;17.70;56.10
24217;DHT22;12356;49.386;8.688;2022-10-31T14:56:10;17.70;57.40
24217;DHT22;12356;49.386;8.688;2022-10-31T14:58:43;17.60;57.20
24217;DHT22;12356;49.386;8.688;2022-10-31T15:01:34;17.50;56.50
24217;DHT22;12356;49.386;8.688;2022-10-31T15:04:16;17.50;57.70
24217;DHT22;12356;49.386;8.688;2022-10-31T15:06:57;17.40;59.30
24217;DHT22;12356;49.386;8.688;2022-10-31T15:09:31;17.30;60.00
24217;DHT22;12356;49.386;8.688;2022-10-31T15:12:23;17.20;60.60
24217;DHT22;12356;49.386;8.688;2022-10-31T15:14:54;17.20;61.50
24217;DHT22;12356;49.386;8.688;2022-10-31T15:17:26;17.10;62.30
24217;DHT22;12356;49.386;8.688;2022-10-31T15:19:57;17.10;63.70
24217;DHT22;12356;49.386;8.688;2022-10-31T15:22:29;17.00;64.90
24217;DHT22;12356;49.386;8.688;2022-10-31T15:25:01;17.00;65.40
24217;DHT22;12356;49.386;8.688;2022-10-31T15:27:32;16.90;66.60
24217;DHT22;12356;49.386;8.688;2022-10-31T15:30:20;16.90;67.00
24217;DHT22;12356;49.386;8.688;2022-10-31T15:32:51;17.00;67.30
24217;DHT22;12356;49.386;8.688;2022-10-31T15:35:29;17.00;67.40
24217;DHT22;12356;49.386;8.688;2022-10-31T15:38:00;16.90;68.20
24217;DHT22;12356;49.386;8.688;2022-10-31T15:40:31;16.90;68.20
24217;DHT22;12356;49.386;8.688;2022-10-31T15:43:04;16.90;67.70
24217;DHT22;12356;49.386;8.688;2022-10-31T15:45:35;16.90;67.10
24217;DHT22;12356;49.386;8.688;2022-10-31T15:48:22;16.90;65.90
24217;DHT22;12356;49.386;8.688;2022-10-31T15:50:57;16.90;65.00
24217;DHT22;12356;49.386;8.688;2022-10-31T15:53:41;17.00;64.90
24217;DHT22;12356;49.386;8.688;2022-10-31T15:56:23;17.00;64.30
24217;DHT22;12356;49.386;8.688;2022-10-31T15:58:55;17.00;64.40
24217;DHT22;12356;49.386;8.688;2022-10-31T16:01:31;17.00;64.90
24217;DHT22;12356;49.386;8.688;2022-10-31T16:06:42;17.00;66.20
24217;DHT22;12356;49.386;8.688;2022-10-31T16:09:23;17.00;65.70
24217;DHT22;12356;49.386;8.688;2022-10-31T16:11:56;16.90;66.50
24217;DHT22;12356;49.386;8.688;2022-10-31T16:14:31;16.90;66.90
24217;DHT22;12356;49.386;8.688;2022-10-31T16:17:03;16.90;67.20
24217;DHT22;12356;49.386;8.688;2022-10-31T16:19:35;16.80;67.20
24217;DHT22;12356;49.386;8.688;2022-10-31T16:22:12;16.80;67.60
24217;DHT22;12356;49.386;8.688;2022-10-31T16:24:49;16.80;68.20
24217;DHT22;12356;49.386;8.688;2022-10-31T16:27:26;16.80;68.10
24217;DHT22;12356;49.386;8.688;2022-10-31T16:30:00;16.70;67.60
24217;DHT22;12356;49.386;8.688;2022-10-31T16:32:35;16.70;67.00
24217;DHT22;12356;49.386;8.688;2022-10-31T16:37:40;16.60;67.70
24217;DHT22;12356;49.386;8.688;2022-10-31T16:40:12;16.60;68.40
24217;DHT22;12356;49.386;8.688;2022-10-31T16:42:44;16.60;68.00
24217;DHT22;12356;49.386;8.688;2022-10-31T16:45:27;16.60;67.70
24217;DHT22;12356;49.386;8.688;2022-10-31T16:48:08;16.60;66.80
24217;DHT22;12356;49.386;8.688;2022-10-31T16:50:40;16.60;67.40
24217;DHT22;12356;49.386;8.688;2022-10-31T16:53:12;16.60;67.20
24217;DHT22;12356;49.386;8.688;2022-10-31T16:58:27;16.50;66.20
24217;DHT22;12356;49.386;8.688;2022-10-31T17:01:03;16.60;66.70
24217;DHT22;12356;49.386;8.688;2022-10-31T17:03:35;16.60;66.70
24217;DHT22;12356;49.386;8.688;2022-10-31T17:06:08;16.60;66.70
24217;DHT22;12356;49.386;8.688;2022-10-31T17:08:39;16.60;66.70
24217;DHT22;12356;49.386;8.688;2022-10-31T17:11:22;16.60;66.10
24217;DHT22;12356;49.386;8.688;2022-10-31T17:13:54;16.70;66.30
24217;DHT22;12356;49.386;8.688;2022-10-31T17:16:26;16.70;66.30
24217;DHT22;12356;49.386;8.688;2022-10-31T17:18:57;16.70;66.20
24217;DHT22;12356;49.386;8.688;2022-10-31T17:21:27;16.70;65.80
24217;DHT22;12356;49.386;8.688;2022-10-31T17:23:58;16.70;65.60
24217;DHT22;12356;49.386;8.688;2022-10-31T17:26:29;16.60;66.00
24217;DHT22;12356;49.386;8.688;2022-10-31T17:28:59;16.60;66.40
24217;DHT22;12356;49.386;8.688;2022-10-31T17:31:34;16.50;65.40
24217;DHT22;12356;49.386;8.688;2022-10-31T17:34:08;16.50;64.90
24217;DHT22;12356;49.386;8.688;2022-10-31T17:36:39;16.60;65.00
24217;DHT22;12356;49.386;8.688;2022-10-31T17:39:10;16.50;64.90
24217;DHT22;12356;49.386;8.688;2022-10-31T17:41:40;16.50;65.50
24217;DHT22;12356;49.386;8.688;2022-10-31T17:44:11;16.40;66.10
24217;DHT22;12356;49.386;8.688;2022-10-31T17:46:42;16.40;65.60
24217;DHT22;12356;49.386;8.688;2022-10-31T17:49:13;16.30;65.50
24217;DHT22;12356;49.386;8.688;2022-10-31T17:51:43;16.30;65.70
24217;DHT22;12356;49.386;8.688;2022-10-31T17:54:14;16.30;66.00
24217;DHT22;12356;49.386;8.688;2022-10-31T17:56:48;16.30;66.10